Time;durP1;ratioP1;P1;durP2;ratioP2;P2;SDS_P1;SDS_P2;PMS_P1;PMS_P2;Temp;Humidity;BMP_temperature;BMP_pressure;BME280_temperature;BME280_humidity;BME280_pressure;Samples;Min_cycle;Max_cycle;Signal;HPM_P1;HPM_P2
2022/10/05 00:01:27;;;;;;;6.25;5.75;;;7.00;99.90;;;;;;5025364;28;20652;-72
2022/10/05 00:04:14;;;;;;;9.27;6.45;;;6.90;99.90;;;;;;5025845;28;20201;-71
2022/10/05 00:07:01;;;;;;;7.25;5.95;;;6.90;99.90;;;;;;5024399;28;20200;-71
2022/10/05 00:09:30;;;;;;;6.82;5.90;;;6.90;99.90;;;;;;5022302;28;20181;-72
2022/10/05 00:11:56;;;;;;;6.15;5.55;;;6.90;99.90;;;;;;5031434;28;20192;-72
2022/10/05 00:14:33;;;;;;;6.57;5.90;;;6.80;99.90;;;;;;5022700;28;20181;-74
2022/10/05 00:17:02;;;;;;;6.80;5.93;;;6.90;99.90;;;;;;5024631;28;20252;-73
2022/10/05 00:19:33;;;;;;;10.50;6.65;;;6.90;99.90;;;;;;5028924;28;20196;-72
2022/10/05 00:22:14;;;;;;;6.60;6.00;;;6.80;99.90;;;;;;5023486;28;20292;-73
2022/10/05 00:24:40;;;;;;;7.15;6.07;;;6.80;99.90;;;;;;5026924;28;20196;-72
2022/10/05 00:27:18;;;;;;;7.43;5.90;;;6.80;99.90;;;;;;5025958;28;20186;-72
2022/10/05 00:29:45;;;;;;;6.65;5.60;;;6.80;99.90;;;;;;5028809;28;20176;-73
2022/10/05 00:32:11;;;;;;;6.40;5.53;;;6.80;99.90;;;;;;5017280;28;20242;-72
2022/10/05 00:34:37;;;;;;;7.53;6.18;;;6.80;99.90;;;;;;5027832;28;20655;-72
2022/10/05 00:37:06;;;;;;;8.85;5.85;;;6.90;99.90;;;;;;5030269;28;20604;-73
2022/10/05 00:39:34;;;;;;;7.57;5.38;;;6.90;99.90;;;;;;5013817;28;20284;-71
2022/10/05 00:42:21;;;;;;;8.35;5.43;;;6.90;99.90;;;;;;5028472;28;20204;-72
2022/10/05 00:44:53;;;;;;;6.68;6.07;;;6.90;99.90;;;;;;5019211;28;20176;-72
2022/10/05 00:47:39;;;;;;;6.57;5.22;;;6.90;99.90;;;;;;5020366;28;20527;-72
2022/10/05 00:50:16;;;;;;;7.25;5.75;;;6.90;99.90;;;;;;5025690;28;20543;-72
2022/10/05 00:52:54;;;;;;;6.97;5.50;;;7.00;99.90;;;;;;5026599;28;20584;-72
2022/10/05 00:56:04;;;;;;;6.45;4.97;;;7.10;99.90;;;;;;5013184;28;20670;-76
2022/10/05 00:58:58;;;;;;;5.28;4.78;;;7.10;99.90;;;;;;5016658;28;20714;-72
2022/10/05 01:01:27;;;;;;;6.25;4.78;;;7.20;99.90;;;;;;5020589;28;20174;-73
2022/10/05 01:04:15;;;;;;;7.97;5.70;;;7.10;99.90;;;;;;5028884;28;20203;-73
2022/10/05 01:06:53;;;;;;;7.70;5.72;;;7.10;99.90;;;;;;5021884;28;20174;-73
2022/10/05 01:09:35;;;;;;;6.47;5.82;;;7.00;99.90;;;;;;5035067;28;20188;-73
2022/10/05 01:12:10;;;;;;;5.80;5.20;;;7.00;99.90;;;;;;5023853;28;20197;-73
2022/10/05 01:15:01;;;;;;;5.63;5.20;;;7.10;99.90;;;;;;5026527;28;20187;-72
2022/10/05 01:17:35;;;;;;;6.10;4.95;;;7.10;99.90;;;;;;5015213;28;20203;-72
2022/10/05 01:20:24;;;;;;;6.43;5.20;;;7.10;99.90;;;;;;5023548;28;20204;-71
2022/10/05 01:23:27;;;;;;;6.18;4.90;;;7.30;99.90;;;;;;5024866;28;20304;-71
2022/10/05 01:25:56;;;;;;;5.13;4.72;;;7.30;99.90;;;;;;5025536;28;20181;-72
2022/10/05 01:28:29;;;;;;;6.07;5.15;;;7.30;99.90;;;;;;5026902;28;20183;-71
2022/10/05 01:31:12;;;;;;;5.70;5.20;;;7.20;99.90;;;;;;5023114;28;20184;-72
2022/10/05 01:33:44;;;;;;;6.47;4.93;;;7.20;99.90;;;;;;5025336;28;20201;-71
2022/10/05 01:36:20;;;;;;;8.63;5.25;;;7.20;99.90;;;;;;5026264;28;20585;-71
2022/10/05 01:39:03;;;;;;;5.63;4.97;;;7.20;99.90;;;;;;5029231;28;20200;-72
2022/10/05 01:41:36;;;;;;;6.32;5.25;;;7.10;99.90;;;;;;5020290;28;20250;-72
2022/10/05 01:44:04;;;;;;;5.68;5.18;;;7.10;99.90;;;;;;5022536;28;20195;-71
2022/10/05 01:46:54;;;;;;;5.53;4.95;;;7.10;99.90;;;;;;5013750;28;20671;-71
2022/10/05 01:49:38;;;;;;;5.55;4.75;;;7.20;99.90;;;;;;5016450;28;20180;-72
2022/10/05 01:52:12;;;;;;;5.88;5.25;;;7.10;99.90;;;;;;5020454;28;20204;-71
2022/10/05 01:55:04;;;;;;;5.57;5.03;;;7.10;99.90;;;;;;5020241;28;20215;-72
2022/10/05 01:57:35;;;;;;;5.90;5.30;;;7.10;99.90;;;;;;5018857;28;20207;-71
2022/10/05 02:00:06;;;;;;;6.50;5.13;;;7.00;99.90;;;;;;5028501;28;20201;-72
2022/10/05 02:02:38;;;;;;;6.72;5.28;;;7.00;99.90;;;;;;5026615;28;20197;-71
2022/10/05 02:05:09;;;;;;;5.13;4.75;;;7.00;99.90;;;;;;5021923;28;20188;-71
2022/10/05 02:08:12;;;;;;;5.68;5.10;;;7.00;99.90;;;;;;5026742;28;20554;-72
2022/10/05 02:10:48;;;;;;;5.50;5.00;;;6.90;99.90;;;;;;5023317;28;20550;-73
2022/10/05 02:13:52;;;;;;;5.88;5.28;;;6.80;99.90;;;;;;5026936;28;20204;-72
2022/10/05 02:16:29;;;;;;;7.72;5.10;;;6.80;99.90;;;;;;5006063;28;20667;-72
2022/10/05 02:19:07;;;;;;;5.80;5.07;;;6.80;99.90;;;;;;5017258;28;20680;-72
2022/10/05 02:21:35;;;;;;;7.20;4.50;;;6.90;99.90;;;;;;5023108;28;20208;-73
2022/10/05 02:24:07;;;;;;;7.80;5.65;;;6.80;99.90;;;;;;5026662;28;20224;-73
2022/10/05 02:26:35;;;;;;;5.50;5.00;;;6.70;99.90;;;;;;5025654;28;20231;-72
2022/10/05 02:29:09;;;;;;;5.10;4.70;;;6.80;99.90;;;;;;5023570;28;20181;-72
2022/10/05 02:31:47;;;;;;;6.97;5.18;;;6.80;99.90;;;;;;5026186;28;20184;-72
2022/10/05 02:34:29;;;;;;;4.97;4.60;;;6.80;99.90;;;;;;5021297;28;20180;-73
2022/10/05 02:37:16;;;;;;;5.63;5.18;;;6.80;99.90;;;;;;5025316;28;20204;-73
2022/10/05 02:39:45;;;;;;;5.97;5.43;;;6.80;99.90;;;;;;5010753;28;20222;-71
2022/10/05 02:42:18;;;;;;;5.72;5.13;;;6.80;99.90;;;;;;5006165;28;20201;-71
2022/10/05 02:45:18;;;;;;;5.03;4.53;;;6.80;99.90;;;;;;5007666;28;20228;-71
2022/10/05 02:47:53;;;;;;;5.32;4.93;;;6.80;99.90;;;;;;5003427;28;20198;-72
2022/10/05 02:50:26;;;;;;;5.55;5.05;;;6.70;99.90;;;;;;5004989;28;20173;-71
2022/10/05 02:53:00;;;;;;;4.60;4.20;;;6.70;99.90;;;;;;5007272;28;20240;-71
2022/10/05 02:55:34;;;;;;;6.47;4.43;;;6.70;99.90;;;;;;5003782;28;20222;-72
2022/10/05 02:58:12;;;;;;;5.75;5.13;;;6.80;99.90;;;;;;5010484;28;20220;-73
2022/10/05 03:01:14;;;;;;;5.32;4.90;;;6.70;99.90;;;;;;5013133;28;20185;-72
2022/10/05 03:03:54;;;;;;;5.00;4.50;;;6.60;99.90;;;;;;5011197;28;20326;-72
2022/10/05 03:06:26;;;;;;;5.50;5.00;;;6.60;99.90;;;;;;5011160;28;20173;-72
2022/10/05 03:09:15;;;;;;;6.30;5.80;;;6.60;99.90;;;;;;5008415;28;20264;-74
2022/10/05 03:12:18;;;;;;;5.85;5.25;;;6.80;99.90;;;;;;5008797;28;20186;-71
2022/10/05 03:15:07;;;;;;;5.65;5.15;;;6.70;99.90;;;;;;5004548;28;20252;-71
2022/10/05 03:18:00;;;;;;;6.03;5.15;;;6.60;99.90;;;;;;5005897;28;20204;-72
2022/10/05 03:20:56;;;;;;;6.50;5.68;;;6.60;99.90;;;;;;4998944;28;20208;-72
2022/10/05 03:24:00;;;;;;;7.38;6.03;;;6.60;99.90;;;;;;5005673;28;20204;-71
2022/10/05 03:26:43;;;;;;;6.32;5.25;;;6.50;99.90;;;;;;5013324;28;20176;-71
2022/10/05 03:29:11;;;;;;;6.75;5.97;;;6.50;99.90;;;;;;5028545;28;20177;-72
2022/10/05 03:31:54;;;;;;;11.25;6.13;;;6.50;99.90;;;;;;5031783;28;20551;-72
2022/10/05 03:34:45;;;;;;;5.30;4.80;;;6.40;99.90;;;;;;5015623;28;20671;-71
2022/10/05 03:37:21;;;;;;;5.65;5.10;;;6.50;99.90;;;;;;5022021;28;20181;-72
2022/10/05 03:40:28;;;;;;;6.20;5.00;;;6.60;99.90;;;;;;5030312;28;20208;-74
2022/10/05 03:43:19;;;;;;;5.43;4.93;;;6.60;99.90;;;;;;5028315;28;20196;-72
2022/10/05 03:46:07;;;;;;;5.60;5.10;;;6.70;99.90;;;;;;5025700;28;20184;-72
2022/10/05 03:48:37;;;;;;;5.72;5.13;;;6.70;99.90;;;;;;5023271;28;20196;-71
2022/10/05 03:51:12;;;;;;;5.63;5.13;;;6.80;99.90;;;;;;5028086;28;20178;-71
2022/10/05 03:54:08;;;;;;;6.10;5.60;;;6.80;99.90;;;;;;5026434;28;20218;-73
2022/10/05 03:56:46;;;;;;;5.90;5.40;;;6.70;99.90;;;;;;5026399;28;20217;-71
2022/10/05 03:59:34;;;;;;;5.38;4.88;;;6.70;99.90;;;;;;5024484;28;20287;-71
2022/10/05 04:02:04;;;;;;;6.00;5.40;;;6.60;99.90;;;;;;5023072;28;20169;-72
2022/10/05 04:04:45;;;;;;;6.15;5.65;;;6.60;99.90;;;;;;5026193;28;20191;-73
2022/10/05 04:07:38;;;;;;;5.60;5.20;;;6.60;99.90;;;;;;5027438;28;20172;-71
2022/10/05 04:10:11;;;;;;;5.63;5.22;;;6.60;99.90;;;;;;5024194;28;20227;-72
2022/10/05 04:12:41;;;;;;;5.22;4.82;;;6.60;99.90;;;;;;5018408;28;20209;-71
2022/10/05 04:15:22;;;;;;;7.20;5.13;;;6.50;99.90;;;;;;5030097;28;20188;-71
2022/10/05 04:18:19;;;;;;;6.15;5.63;;;6.50;99.90;;;;;;5029000;28;20287;-71
2022/10/05 04:20:51;;;;;;;6.00;5.38;;;6.50;99.90;;;;;;5018890;28;20173;-71
2022/10/05 04:23:31;;;;;;;6.22;5.63;;;6.40;99.90;;;;;;5020416;28;20192;-73
2022/10/05 04:26:04;;;;;;;6.13;5.63;;;6.30;99.90;;;;;;5030821;28;20207;-72
2022/10/05 04:29:07;;;;;;;5.80;5.30;;;6.20;99.90;;;;;;5025908;28;20192;-71
2022/10/05 04:31:50;;;;;;;7.30;5.47;;;6.30;99.90;;;;;;5022234;28;20279;-71
2022/10/05 04:34:35;;;;;;;6.20;5.70;;;6.40;99.90;;;;;;5013539;28;20588;-72
2022/10/05 04:37:07;;;;;;;6.63;4.45;;;6.40;99.90;;;;;;5024467;28;20184;-71
2022/10/05 04:39:41;;;;;;;5.35;4.95;;;6.30;99.90;;;;;;5024697;28;20283;-71
2022/10/05 04:42:10;;;;;;;7.93;5.05;;;6.30;99.90;;;;;;5023915;28;20200;-71
2022/10/05 04:44:44;;;;;;;5.72;5.22;;;6.20;99.90;;;;;;5010458;28;20182;-71
2022/10/05 04:47:37;;;;;;;5.40;4.90;;;6.10;99.90;;;;;;5007356;28;20659;-72
2022/10/05 04:50:11;;;;;;;7.55;6.32;;;6.10;99.90;;;;;;5008070;28;20229;-71
2022/10/05 04:53:06;;;;;;;6.22;5.72;;;6.10;99.90;;;;;;5001554;28;20205;-73
2022/10/05 04:56:00;;;;;;;6.65;5.75;;;6.00;99.90;;;;;;5000562;28;20220;-73
2022/10/05 04:58:36;;;;;;;6.75;6.10;;;6.00;99.90;;;;;;5003817;28;20182;-74
2022/10/05 05:01:32;;;;;;;8.23;6.15;;;5.90;99.90;;;;;;5003637;28;20552;-72
2022/10/05 05:04:18;;;;;;;12.40;6.47;;;5.90;99.90;;;;;;5002994;28;20205;-72
2022/10/05 05:07:12;;;;;;;6.90;6.20;;;5.90;99.90;;;;;;5006552;28;20190;-71
2022/10/05 05:09:55;;;;;;;6.63;5.50;;;5.90;99.90;;;;;;5003255;28;20240;-71
2022/10/05 05:12:49;;;;;;;6.78;6.07;;;5.90;99.90;;;;;;5005475;28;20205;-71
2022/10/05 05:15:29;;;;;;;7.57;6.53;;;5.90;99.90;;;;;;5006899;28;20178;-71
2022/10/05 05:18:19;;;;;;;6.10;5.60;;;5.90;99.90;;;;;;5002533;28;20546;-70
2022/10/05 05:20:45;;;;;;;6.32;5.82;;;5.90;99.90;;;;;;5005945;28;20268;-70
2022/10/05 05:23:28;;;;;;;6.20;5.70;;;5.90;99.90;;;;;;5007393;28;20300;-70
2022/10/05 05:26:07;;;;;;;6.43;5.88;;;5.90;99.90;;;;;;5017267;28;20184;-70
2022/10/05 05:29:05;;;;;;;6.95;6.20;;;6.00;99.90;;;;;;5012541;28;20240;-72
2022/10/05 05:31:55;;;;;;;6.47;5.78;;;6.00;99.90;;;;;;5018064;28;20310;-71
2022/10/05 05:34:59;;;;;;;6.72;5.80;;;6.00;99.90;;;;;;5005540;28;20559;-71
2022/10/05 05:37:37;;;;;;;6.22;5.68;;;6.00;99.90;;;;;;4997846;28;20197;-72
2022/10/05 05:40:12;;;;;;;6.88;5.95;;;6.00;99.90;;;;;;5010084;28;20267;-71
2022/10/05 05:42:58;;;;;;;7.13;6.43;;;6.00;99.90;;;;;;5001062;28;20212;-71
2022/10/05 05:45:35;;;;;;;6.18;5.60;;;6.00;99.90;;;;;;5005756;28;20192;-71
2022/10/05 05:48:11;;;;;;;8.73;7.00;;;6.00;99.90;;;;;;5020272;28;20195;-71
2022/10/05 05:50:52;;;;;;;7.30;6.63;;;6.10;99.90;;;;;;5013566;28;20173;-72
2022/10/05 05:53:30;;;;;;;6.95;6.15;;;6.10;99.90;;;;;;5002937;28;20568;-71
2022/10/05 05:56:04;;;;;;;7.38;6.57;;;6.20;99.90;;;;;;5006438;28;20192;-71
2022/10/05 05:58:53;;;;;;;8.23;7.10;;;6.20;99.90;;;;;;5008353;28;20267;-72
2022/10/05 06:01:41;;;;;;;6.75;6.15;;;6.20;99.90;;;;;;5012011;28;20180;-71
2022/10/05 06:04:23;;;;;;;7.05;6.35;;;6.30;99.90;;;;;;5024780;28;20192;-71
2022/10/05 06:06:52;;;;;;;6.80;5.97;;;6.40;99.90;;;;;;5019057;28;20173;-71
2022/10/05 06:09:31;;;;;;;7.30;5.93;;;6.40;99.90;;;;;;5030914;28;20706;-71
2022/10/05 06:12:04;;;;;;;6.00;5.40;;;6.50;99.90;;;;;;5019078;28;20303;-71
2022/10/05 06:14:53;;;;;;;6.82;5.50;;;6.50;99.90;;;;;;5008812;28;20184;-71
2022/10/05 06:17:31;;;;;;;8.73;5.70;;;6.60;99.90;;;;;;4999846;28;20231;-70
2022/10/05 06:19:59;;;;;;;6.82;5.63;;;6.80;99.90;;;;;;5020282;28;20207;-70
2022/10/05 06:22:46;;;;;;;7.35;5.43;;;6.90;99.90;;;;;;5019463;28;20209;-71
2022/10/05 06:25:22;;;;;;;6.18;5.57;;;7.00;99.90;;;;;;5017503;28;20248;-72
2022/10/05 06:28:10;;;;;;;6.40;5.78;;;7.00;99.90;;;;;;5018198;28;20181;-72
2022/10/05 06:30:58;;;;;;;6.40;5.80;;;7.00;99.90;;;;;;5026622;28;20203;-71
2022/10/05 06:33:30;;;;;;;5.38;4.97;;;7.00;99.90;;;;;;5000282;28;20296;-75
2022/10/05 06:36:10;;;;;;;5.95;5.45;;;7.00;99.90;;;;;;5004317;28;20180;-72
2022/10/05 06:38:54;;;;;;;6.47;5.32;;;7.10;99.90;;;;;;5003138;28;20220;-72
2022/10/05 06:41:34;;;;;;;6.57;5.20;;;7.10;99.90;;;;;;5001996;28;20196;-72
2022/10/05 06:44:08;;;;;;;5.90;5.40;;;7.20;99.90;;;;;;5002356;28;20665;-71
2022/10/05 06:46:57;;;;;;;6.60;5.30;;;7.30;99.90;;;;;;5003507;28;20174;-71
2022/10/05 06:49:29;;;;;;;8.00;5.05;;;7.40;99.90;;;;;;4999984;28;20321;-73
2022/10/05 06:51:59;;;;;;;7.35;5.00;;;7.60;99.90;;;;;;5013956;28;20198;-71
2022/10/05 06:54:39;;;;;;;5.95;4.80;;;7.70;99.90;;;;;;5011076;28;20186;-70
2022/10/05 06:57:29;;;;;;;5.85;5.00;;;7.80;99.90;;;;;;5030846;28;20192;-72
2022/10/05 07:00:00;;;;;;;8.52;5.00;;;8.00;99.90;;;;;;5017752;28;20198;-72
2022/10/05 07:02:26;;;;;;;5.75;5.05;;;8.20;99.90;;;;;;5010096;28;20254;-71
2022/10/05 07:05:22;;;;;;;5.07;4.68;;;8.40;99.90;;;;;;5012166;28;20182;-71
2022/10/05 07:07:55;;;;;;;5.38;4.88;;;8.60;99.90;;;;;;4997483;28;20209;-74
2022/10/05 07:10:46;;;;;;;6.13;5.13;;;8.80;99.90;;;;;;5013299;28;20651;-72
2022/10/05 07:13:15;;;;;;;5.82;5.10;;;9.00;99.90;;;;;;5007248;28;20617;-72
2022/10/05 07:16:10;;;;;;;7.93;4.97;;;9.20;99.90;;;;;;5014444;28;20572;-72
2022/10/05 07:18:56;;;;;;;6.60;4.57;;;9.30;99.90;;;;;;5004570;28;20190;-71
2022/10/05 07:21:38;;;;;;;5.15;4.75;;;9.40;99.90;;;;;;5012090;28;20231;-74
2022/10/05 07:24:32;;;;;;;5.10;4.60;;;9.60;99.90;;;;;;5003827;28;20228;-73
2022/10/05 07:27:11;;;;;;;5.55;4.47;;;9.70;99.90;;;;;;5009533;28;20174;-72
2022/10/05 07:29:51;;;;;;;5.60;5.10;;;9.90;99.90;;;;;;5003961;28;20185;-72
2022/10/05 07:32:42;;;;;;;4.97;4.57;;;9.90;99.90;;;;;;5010291;28;20290;-73
2022/10/05 07:38:23;;;;;;;5.50;4.50;;;10.20;99.90;;;;;;5020322;28;20548;-74
2022/10/05 07:41:05;;;;;;;6.00;5.18;;;10.30;99.90;;;;;;5014541;28;20236;-73
2022/10/05 07:43:47;;;;;;;5.68;5.00;;;10.40;99.90;;;;;;5019222;28;20228;-73
2022/10/05 07:46:28;;;;;;;6.25;4.78;;;10.40;99.90;;;;;;5007511;28;20164;-77
2022/10/05 07:49:15;;;;;;;4.95;4.55;;;10.50;99.90;;;;;;5026158;28;20589;-76
2022/10/05 07:51:46;;;;;;;7.38;5.07;;;10.50;99.90;;;;;;5005608;28;20539;-76
2022/10/05 07:54:33;;;;;;;5.13;4.57;;;10.60;99.90;;;;;;5016823;28;20201;-76
2022/10/05 07:57:09;;;;;;;4.85;4.45;;;10.70;99.90;;;;;;5015876;28;20304;-75
2022/10/05 07:59:55;;;;;;;5.63;4.97;;;10.80;99.90;;;;;;5022908;28;20552;-76
2022/10/05 08:02:49;;;;;;;7.18;5.10;;;10.90;99.90;;;;;;5011258;28;20200;-76
2022/10/05 08:05:27;;;;;;;6.05;4.60;;;11.10;99.90;;;;;;5006840;28;20172;-79
2022/10/05 08:08:20;;;;;;;6.97;4.95;;;11.20;99.90;;;;;;5020493;28;20346;-77
2022/10/05 08:10:58;;;;;;;4.88;4.47;;;11.40;99.90;;;;;;5019897;28;20172;-77
2022/10/05 08:14:01;;;;;;;4.80;4.40;;;11.70;99.90;;;;;;5018165;28;20685;-80
2022/10/05 08:16:32;;;;;;;4.55;4.15;;;11.80;99.90;;;;;;5020059;28;20206;-78
2022/10/05 08:19:19;;;;;;;5.25;4.75;;;11.90;99.90;;;;;;5024962;28;20598;-78
2022/10/05 08:21:54;;;;;;;5.45;4.95;;;12.20;99.90;;;;;;5019391;28;20220;-78
2022/10/05 08:24:32;;;;;;;5.47;5.05;;;12.30;99.90;;;;;;5012409;28;20224;-78
2022/10/05 08:27:06;;;;;;;5.40;4.90;;;12.50;99.90;;;;;;5027819;28;20602;-78
2022/10/05 08:29:51;;;;;;;6.03;4.93;;;12.70;99.90;;;;;;5025754;28;20176;-78
2022/10/05 08:32:37;;;;;;;4.63;4.18;;;13.00;99.90;;;;;;5009382;28;20231;-79
2022/10/05 08:35:24;;;;;;;4.90;4.50;;;13.30;99.90;;;;;;5011685;28;20547;-78
2022/10/05 08:37:51;;;;;;;4.70;4.30;;;13.70;99.90;;;;;;5008247;28;20182;-78
2022/10/05 08:40:46;;;;;;;5.13;4.63;;;14.20;99.90;;;;;;5008426;28;20220;-79
2022/10/05 08:43:42;;;;;;;4.32;3.92;;;14.50;99.90;;;;;;5018198;28;20184;-79
2022/10/05 08:46:31;;;;;;;5.03;4.63;;;14.70;99.90;;;;;;5015991;28;20734;-78
2022/10/05 08:49:21;;;;;;;4.60;4.20;;;14.90;99.90;;;;;;5007016;28;20193;-77
2022/10/05 08:52:24;;;;;;;4.53;4.13;;;15.00;99.90;;;;;;5011142;28;20260;-77
2022/10/05 08:55:30;;;;;;;5.80;4.55;;;15.30;99.90;;;;;;5014585;28;20181;-77
2022/10/05 08:57:58;;;;;;;5.75;4.50;;;15.60;99.90;;;;;;5015786;28;20601;-77
2022/10/05 09:00:50;;;;;;;4.40;4.00;;;15.90;99.90;;;;;;5015363;28;20189;-77
2022/10/05 09:03:30;;;;;;;4.72;4.32;;;16.90;99.90;;;;;;5013351;28;20516;-75
2022/10/05 09:06:22;;;;;;;4.57;3.85;;;18.00;99.90;;;;;;5025300;28;20611;-79
2022/10/05 09:09:12;;;;;;;4.30;3.97;;;18.90;99.90;;;;;;4997810;28;20203;-78
2022/10/05 09:11:54;;;;;;;4.00;3.70;;;19.60;99.90;;;;;;5013790;28;20606;-75
2022/10/05 09:14:22;;;;;;;4.13;3.42;;;20.20;99.90;;;;;;5022959;28;20320;-76
2022/10/05 09:17:00;;;;;;;3.70;3.40;;;20.90;99.90;;;;;;5012812;28;20181;-75
2022/10/05 09:19:40;;;;;;;4.95;4.18;;;21.90;99.90;;;;;;5000497;28;20288;-77
2022/10/05 09:22:15;;;;;;;3.85;3.55;;;22.90;96.90;;;;;;5022415;28;20200;-76
2022/10/05 09:24:53;;;;;;;3.90;3.50;;;23.70;94.20;;;;;;5005093;28;20592;-77
2022/10/05 09:27:34;;;;;;;5.50;3.70;;;24.40;92.00;;;;;;5007602;28;20194;-76
2022/10/05 09:30:19;;;;;;;3.80;3.47;;;24.80;89.70;;;;;;5009282;28;20519;-76
2022/10/05 09:33:08;;;;;;;3.50;3.20;;;25.30;86.50;;;;;;5011688;28;20585;-76
2022/10/05 09:35:52;;;;;;;3.80;3.35;;;25.50;83.20;;;;;;5020155;28;20272;-76
2022/10/05 09:38:51;;;;;;;3.40;3.20;;;25.40;82.90;;;;;;5015860;28;20255;-77
2022/10/05 09:41:35;;;;;;;3.50;3.20;;;25.70;81.20;;;;;;5014111;28;20197;-77
2022/10/05 09:44:20;;;;;;;6.13;3.55;;;26.30;76.80;;;;;;5008236;28;20208;-78
2022/10/05 09:46:53;;;;;;;3.78;3.47;;;26.70;76.40;;;;;;4998604;28;20338;-78
2022/10/05 09:50:03;;;;;;;4.47;3.33;;;26.90;74.90;;;;;;5006053;28;20260;-76
2022/10/05 09:52:41;;;;;;;3.38;3.08;;;27.80;71.50;;;;;;5016609;28;20224;-76
2022/10/05 09:55:18;;;;;;;3.55;3.35;;;28.20;68.40;;;;;;5019928;28;20534;-77
2022/10/05 09:57:58;;;;;;;3.67;3.38;;;28.10;68.90;;;;;;5016683;28;20189;-76
2022/10/05 10:00:34;;;;;;;3.67;3.45;;;28.20;67.90;;;;;;5016968;28;20658;-75
2022/10/05 10:03:23;;;;;;;3.38;3.08;;;28.50;66.70;;;;;;5016364;28;20233;-76
2022/10/05 10:06:14;;;;;;;3.20;3.00;;;28.40;65.90;;;;;;5010441;28;20647;-76
2022/10/05 10:09:04;;;;;;;3.55;3.25;;;28.10;66.90;;;;;;5004615;28;20178;-77
2022/10/05 10:12:07;;;;;;;3.40;3.20;;;27.70;68.00;;;;;;5006217;28;20225;-78
2022/10/05 10:14:47;;;;;;;5.75;3.08;;;26.70;68.70;;;;;;5015775;28;20538;-78
2022/10/05 10:17:21;;;;;;;3.80;3.45;;;26.80;70.10;;;;;;5002745;28;20196;-76
2022/10/05 10:20:24;;;;;;;4.85;3.42;;;27.10;69.80;;;;;;4999268;28;20200;-80
2022/10/05 10:23:06;;;;;;;4.55;3.10;;;27.80;69.20;;;;;;5008730;28;20223;-79
2022/10/05 10:25:41;;;;;;;3.35;3.00;;;29.00;65.40;;;;;;5006339;28;20188;-79
2022/10/05 10:28:37;;;;;;;3.72;3.20;;;30.00;63.10;;;;;;5008523;28;20213;-78
2022/10/05 10:31:21;;;;;;;2.72;2.58;;;30.80;60.20;;;;;;5010441;28;20585;-78
2022/10/05 10:34:02;;;;;;;4.05;3.00;;;31.40;59.10;;;;;;5006888;28;20200;-81
2022/10/05 10:36:27;;;;;;;3.22;2.92;;;31.80;57.40;;;;;;5013265;28;20183;-78
2022/10/05 10:39:04;;;;;;;3.20;2.88;;;31.90;56.80;;;;;;5004450;28;20208;-77
2022/10/05 10:41:40;;;;;;;3.55;2.83;;;31.60;57.00;;;;;;5008789;28;20195;-78
2022/10/05 10:44:37;;;;;;;2.88;2.55;;;31.90;55.80;;;;;;5012189;28;20923;-78
2022/10/05 10:47:09;;;;;;;3.42;2.30;;;32.00;55.90;;;;;;5004185;28;20169;-78
2022/10/05 10:50:05;;;;;;;2.72;2.50;;;32.50;56.20;;;;;;5007235;28;20185;-79
2022/10/05 10:52:39;;;;;;;3.60;2.60;;;33.10;54.60;;;;;;5022880;28;20239;-77
2022/10/05 10:55:20;;;;;;;3.25;2.58;;;33.50;54.40;;;;;;5008373;28;20578;-75
2022/10/05 10:58:20;;;;;;;2.50;2.30;;;33.80;53.00;;;;;;5004030;28;20239;-75
2022/10/05 11:01:22;;;;;;;2.47;2.28;;;33.80;52.40;;;;;;4994474;28;20642;-75
2022/10/05 11:04:15;;;;;;;2.45;2.30;;;33.50;53.70;;;;;;5004035;28;20261;-78
2022/10/05 11:07:15;;;;;;;2.97;2.30;;;32.60;53.80;;;;;;5004850;28;20181;-75
2022/10/05 11:10:01;;;;;;;2.95;2.72;;;32.80;54.20;;;;;;5005191;28;20181;-75
2022/10/05 11:12:57;;;;;;;4.05;3.75;;;33.00;54.30;;;;;;5007435;28;20617;-75
2022/10/05 11:15:28;;;;;;;3.50;3.25;;;32.90;53.50;;;;;;5007818;28;20184;-75
2022/10/05 11:18:14;;;;;;;2.88;2.70;;;32.50;54.70;;;;;;5005444;28;20223;-74
2022/10/05 11:20:58;;;;;;;3.47;2.50;;;32.20;55.30;;;;;;5006698;28;20280;-75
2022/10/05 11:23:43;;;;;;;2.78;2.58;;;31.50;55.70;;;;;;5011647;28;20331;-74
2022/10/05 11:26:45;;;;;;;3.35;2.70;;;31.30;56.60;;;;;;5010776;28;20187;-75
2022/10/05 11:29:48;;;;;;;3.22;2.42;;;31.50;56.60;;;;;;5009642;28;20184;-74
2022/10/05 11:32:36;;;;;;;2.60;2.40;;;31.80;57.50;;;;;;5005849;28;20222;-74
2022/10/05 11:35:14;;;;;;;2.95;2.50;;;33.00;55.30;;;;;;5011895;28;20177;-76
2022/10/05 11:37:58;;;;;;;6.45;4.25;;;34.00;54.10;;;;;;5008687;28;20192;-77
2022/10/05 11:40:47;;;;;;;5.25;4.43;;;34.50;52.90;;;;;;5007590;28;20248;-78
2022/10/05 11:43:44;;;;;;;2.78;2.58;;;35.40;51.00;;;;;;5010277;28;20200;-77
2022/10/05 11:46:32;;;;;;;3.20;2.75;;;34.90;50.80;;;;;;5007758;28;20180;-77
2022/10/05 11:49:15;;;;;;;5.45;4.95;;;34.70;51.80;;;;;;5008443;28;20204;-78
2022/10/05 11:51:49;;;;;;;3.65;3.30;;;35.10;51.30;;;;;;5002660;28;20169;-78
2022/10/05 11:54:32;;;;;;;3.13;2.78;;;35.60;50.30;;;;;;5006677;28;20231;-77
2022/10/05 11:57:18;;;;;;;3.80;2.95;;;35.50;50.70;;;;;;5015260;28;20188;-76
2022/10/05 11:59:55;;;;;;;3.08;2.63;;;35.20;50.90;;;;;;5015976;28;20322;-77
2022/10/05 12:02:38;;;;;;;2.70;2.60;;;35.10;50.60;;;;;;5011532;28;20200;-76
2022/10/05 12:05:33;;;;;;;4.03;2.83;;;34.50;51.10;;;;;;5015523;28;20188;-77
2022/10/05 12:08:06;;;;;;;2.65;2.53;;;33.20;52.80;;;;;;5009300;28;20217;-78
2022/10/05 12:10:49;;;;;;;2.50;2.25;;;32.50;54.40;;;;;;5007572;28;20259;-78
2022/10/05 12:13:32;;;;;;;3.72;2.55;;;31.90;55.50;;;;;;5002032;28;20197;-78
2022/10/05 12:16:14;;;;;;;4.03;2.42;;;31.10;56.60;;;;;;5022055;28;20183;-78
2022/10/05 12:18:39;;;;;;;2.45;2.25;;;30.80;57.00;;;;;;5022338;28;20806;-79
2022/10/05 12:21:13;;;;;;;4.13;2.40;;;30.80;58.10;;;;;;5016231;28;20259;-72
2022/10/05 12:23:48;;;;;;;3.33;2.65;;;30.60;58.70;;;;;;5020062;28;20208;-72
2022/10/05 12:26:29;;;;;;;3.10;2.30;;;30.30;58.50;;;;;;5012496;28;20201;-77
2022/10/05 12:29:17;;;;;;;2.90;2.63;;;30.10;59.40;;;;;;5006330;28;20615;-78
2022/10/05 12:31:51;;;;;;;4.00;2.95;;;30.00;59.40;;;;;;5007680;28;20199;-77
2022/10/05 12:34:41;;;;;;;4.22;2.67;;;29.90;59.70;;;;;;5009257;28;20226;-75
2022/10/05 12:37:45;;;;;;;3.30;2.53;;;29.70;59.60;;;;;;5001730;28;20258;-74
2022/10/05 12:40:25;;;;;;;2.90;2.70;;;29.50;61.20;;;;;;5013257;28;20203;-77
2022/10/05 12:42:57;;;;;;;2.42;2.33;;;28.80;62.00;;;;;;5008421;28;20705;-75
2022/10/05 12:45:35;;;;;;;3.15;2.60;;;28.00;64.60;;;;;;5005708;28;20180;-76
2022/10/05 12:48:18;;;;;;;3.45;2.90;;;27.60;67.10;;;;;;5005282;28;20169;-75
2022/10/05 12:50:50;;;;;;;2.72;2.53;;;27.60;67.00;;;;;;5001359;28;20591;-74
2022/10/05 12:53:47;;;;;;;2.63;2.47;;;27.70;67.30;;;;;;5008719;28;20188;-76
2022/10/05 12:56:22;;;;;;;6.28;2.85;;;27.50;67.10;;;;;;5008267;28;20227;-75
2022/10/05 12:59:18;;;;;;;5.90;2.65;;;27.50;66.60;;;;;;5006324;28;20176;-73
2022/10/05 13:02:10;;;;;;;3.03;2.70;;;27.60;67.70;;;;;;5011888;28;20205;-74
2022/10/05 13:04:48;;;;;;;2.58;2.35;;;27.80;67.10;;;;;;5007791;28;20212;-72
2022/10/05 13:07:47;;;;;;;3.42;2.75;;;27.80;66.40;;;;;;5007367;28;20180;-74
2022/10/05 13:10:29;;;;;;;2.90;2.70;;;27.50;67.10;;;;;;5001417;28;20184;-72
2022/10/05 13:13:12;;;;;;;3.00;2.67;;;27.30;68.90;;;;;;5010577;28;20275;-73
2022/10/05 13:16:07;;;;;;;7.55;2.97;;;27.10;69.30;;;;;;5025320;28;20274;-76
2022/10/05 13:19:07;;;;;;;4.03;2.60;;;27.20;69.80;;;;;;5012604;28;20181;-76
2022/10/05 13:21:56;;;;;;;3.00;2.42;;;27.30;69.60;;;;;;5008993;28;20177;-75
2022/10/05 13:24:51;;;;;;;5.15;2.80;;;27.20;70.00;;;;;;5008677;28;20252;-75
2022/10/05 13:27:28;;;;;;;2.88;2.67;;;27.10;70.70;;;;;;5008400;28;20173;-76
2022/10/05 13:30:17;;;;;;;2.58;2.38;;;26.90;71.20;;;;;;5011605;28;20234;-75
2022/10/05 13:32:43;;;;;;;3.80;2.45;;;26.50;71.50;;;;;;5011368;28;20613;-75
2022/10/05 13:35:28;;;;;;;4.55;2.60;;;26.30;73.00;;;;;;5011623;28;20172;-75
2022/10/05 13:38:28;;;;;;;3.40;2.75;;;25.90;73.80;;;;;;5013416;28;20312;-74
2022/10/05 13:41:04;;;;;;;5.10;2.80;;;25.60;74.50;;;;;;5009893;28;20197;-74
2022/10/05 13:43:49;;;;;;;3.03;2.70;;;25.50;75.30;;;;;;5017166;28;20238;-74
2022/10/05 13:46:20;;;;;;;3.08;2.40;;;25.60;75.10;;;;;;5002182;28;20219;-75
2022/10/05 13:49:13;;;;;;;2.95;2.72;;;25.80;75.50;;;;;;5023875;28;20221;-74
2022/10/05 13:51:57;;;;;;;4.32;2.67;;;25.60;76.20;;;;;;5012587;28;20191;-73
2022/10/05 13:54:37;;;;;;;3.60;2.38;;;25.50;75.70;;;;;;5012709;28;20564;-73
2022/10/05 13:57:20;;;;;;;3.15;2.80;;;25.40;77.00;;;;;;5030744;28;20702;-76
2022/10/05 14:00:11;;;;;;;6.00;2.72;;;25.70;76.30;;;;;;5024487;28;20235;-74
2022/10/05 14:02:40;;;;;;;5.82;2.40;;;25.60;76.00;;;;;;5006833;28;20300;-76
2022/10/05 14:05:21;;;;;;;2.55;2.35;;;25.70;76.80;;;;;;5014255;28;20174;-75
2022/10/05 14:08:16;;;;;;;5.75;2.40;;;25.70;76.30;;;;;;5010650;28;20279;-76
2022/10/05 14:10:45;;;;;;;4.32;2.63;;;25.50;76.70;;;;;;5009322;28;20208;-77
2022/10/05 14:13:33;;;;;;;4.95;2.92;;;25.30;76.80;;;;;;5015437;28;20189;-78
2022/10/05 14:16:11;;;;;;;6.65;3.22;;;25.20;78.20;;;;;;5020317;28;20182;-76